sensor_id;sensor_type;location;lat;lon;timestamp;P1;durP1;ratioP1;P2;durP2;ratioP2
75772;SDS011;64381;0.000;0.000;2022-10-30T00:02:19;5.70;;;2.87;;
75772;SDS011;64381;0.000;0.000;2022-10-30T00:04:44;7.00;;;3.50;;
75772;SDS011;64381;0.000;0.000;2022-10-30T00:07:10;6.40;;;3.30;;
75772;SDS011;64381;0.000;0.000;2022-10-30T00:09:35;5.73;;;2.93;;
75772;SDS011;64381;0.000;0.000;2022-10-30T00:12:00;6.60;;;3.13;;
75772;SDS011;64381;0.000;0.000;2022-10-30T00:14:25;5.80;;;2.93;;
75772;SDS011;64381;0.000;0.000;2022-10-30T00:16:50;6.63;;;3.00;;
75772;SDS011;64381;0.000;0.000;2022-10-30T00:19:16;6.23;;;2.93;;
75772;SDS011;64381;0.000;0.000;2022-10-30T00:21:41;5.17;;;2.93;;
75772;SDS011;64381;0.000;0.000;2022-10-30T00:24:06;5.60;;;3.20;;
75772;SDS011;64381;0.000;0.000;2022-10-30T00:26:31;5.83;;;3.03;;
75772;SDS011;64381;0.000;0.000;2022-10-30T00:28:57;4.67;;;2.87;;
75772;SDS011;64381;0.000;0.000;2022-10-30T00:31:22;6.37;;;3.07;;
75772;SDS011;64381;0.000;0.000;2022-10-30T00:33:48;5.17;;;3.10;;
75772;SDS011;64381;0.000;0.000;2022-10-30T00:36:17;5.22;;;2.80;;
75772;SDS011;64381;0.000;0.000;2022-10-30T00:38:43;4.75;;;2.75;;
75772;SDS011;64381;0.000;0.000;2022-10-30T00:41:14;6.57;;;2.97;;
75772;SDS011;64381;0.000;0.000;2022-10-30T00:43:41;5.57;;;2.90;;
75772;SDS011;64381;0.000;0.000;2022-10-30T00:48:53;6.18;;;3.00;;
75772;SDS011;64381;0.000;0.000;2022-10-30T00:51:22;5.72;;;2.65;;
75772;SDS011;64381;0.000;0.000;2022-10-30T00:53:47;5.83;;;3.03;;
75772;SDS011;64381;0.000;0.000;2022-10-30T00:56:13;6.38;;;3.20;;
75772;SDS011;64381;0.000;0.000;2022-10-30T00:58:42;5.68;;;2.70;;
75772;SDS011;64381;0.000;0.000;2022-10-30T01:01:14;6.93;;;2.97;;
75772;SDS011;64381;0.000;0.000;2022-10-30T01:03:43;6.15;;;3.20;;
75772;SDS011;64381;0.000;0.000;2022-10-30T01:06:09;6.60;;;2.97;;
75772;SDS011;64381;0.000;0.000;2022-10-30T01:08:38;6.63;;;2.90;;
75772;SDS011;64381;0.000;0.000;2022-10-30T01:11:03;5.60;;;2.70;;
75772;SDS011;64381;0.000;0.000;2022-10-30T01:13:30;6.45;;;3.05;;
75772;SDS011;64381;0.000;0.000;2022-10-30T01:16:08;5.32;;;2.72;;
75772;SDS011;64381;0.000;0.000;2022-10-30T01:21:47;5.70;;;2.70;;
75772;SDS011;64381;0.000;0.000;2022-10-30T01:27:09;6.25;;;2.80;;
75772;SDS011;64381;0.000;0.000;2022-10-30T01:29:52;5.57;;;2.67;;
75772;SDS011;64381;0.000;0.000;2022-10-30T01:32:24;5.32;;;2.80;;
75772;SDS011;64381;0.000;0.000;2022-10-30T01:34:56;5.27;;;2.90;;
75772;SDS011;64381;0.000;0.000;2022-10-30T01:40:12;6.25;;;3.13;;
75772;SDS011;64381;0.000;0.000;2022-10-30T01:45:14;6.60;;;2.80;;
75772;SDS011;64381;0.000;0.000;2022-10-30T01:47:47;5.17;;;2.50;;
75772;SDS011;64381;0.000;0.000;2022-10-30T01:53:00;5.88;;;2.65;;
75772;SDS011;64381;0.000;0.000;2022-10-30T01:55:36;6.10;;;2.97;;
75772;SDS011;64381;0.000;0.000;2022-10-30T02:00:45;5.93;;;2.80;;
75772;SDS011;64381;0.000;0.000;2022-10-30T02:03:17;5.10;;;2.50;;
75772;SDS011;64381;0.000;0.000;2022-10-30T02:05:44;5.57;;;2.42;;
75772;SDS011;64381;0.000;0.000;2022-10-30T02:08:12;6.10;;;2.60;;
75772;SDS011;64381;0.000;0.000;2022-10-30T02:10:38;5.00;;;2.63;;
75772;SDS011;64381;0.000;0.000;2022-10-30T02:13:06;4.95;;;2.80;;
75772;SDS011;64381;0.000;0.000;2022-10-30T02:15:31;6.18;;;2.88;;
75772;SDS011;64381;0.000;0.000;2022-10-30T02:17:57;6.27;;;2.83;;
75772;SDS011;64381;0.000;0.000;2022-10-30T02:20:22;4.77;;;2.67;;
75772;SDS011;64381;0.000;0.000;2022-10-30T02:22:48;5.43;;;2.53;;
75772;SDS011;64381;0.000;0.000;2022-10-30T02:25:14;5.70;;;2.80;;
75772;SDS011;64381;0.000;0.000;2022-10-30T02:27:40;4.50;;;2.47;;
75772;SDS011;64381;0.000;0.000;2022-10-30T02:30:05;5.07;;;2.50;;
75772;SDS011;64381;0.000;0.000;2022-10-30T02:32:31;5.55;;;2.60;;
75772;SDS011;64381;0.000;0.000;2022-10-30T02:34:56;5.30;;;2.60;;
75772;SDS011;64381;0.000;0.000;2022-10-30T02:37:22;5.60;;;2.90;;
75772;SDS011;64381;0.000;0.000;2022-10-30T02:39:47;6.33;;;2.40;;
75772;SDS011;64381;0.000;0.000;2022-10-30T02:42:12;5.53;;;2.50;;
75772;SDS011;64381;0.000;0.000;2022-10-30T02:44:37;5.03;;;2.67;;
75772;SDS011;64381;0.000;0.000;2022-10-30T02:47:02;5.07;;;2.93;;
75772;SDS011;64381;0.000;0.000;2022-10-30T02:49:28;5.03;;;2.63;;
75772;SDS011;64381;0.000;0.000;2022-10-30T02:51:53;4.47;;;2.30;;
75772;SDS011;64381;0.000;0.000;2022-10-30T02:54:18;5.40;;;2.80;;
75772;SDS011;64381;0.000;0.000;2022-10-30T02:56:43;6.13;;;2.40;;
75772;SDS011;64381;0.000;0.000;2022-10-30T02:59:09;4.57;;;2.40;;
75772;SDS011;64381;0.000;0.000;2022-10-30T03:01:34;5.20;;;2.50;;
75772;SDS011;64381;0.000;0.000;2022-10-30T03:03:59;5.83;;;2.67;;
75772;SDS011;64381;0.000;0.000;2022-10-30T03:06:24;5.20;;;2.40;;
75772;SDS011;64381;0.000;0.000;2022-10-30T03:08:50;4.93;;;2.30;;
75772;SDS011;64381;0.000;0.000;2022-10-30T03:11:15;4.90;;;2.58;;
75772;SDS011;64381;0.000;0.000;2022-10-30T03:13:43;5.03;;;2.70;;
75772;SDS011;64381;0.000;0.000;2022-10-30T03:16:10;5.07;;;2.40;;
75772;SDS011;64381;0.000;0.000;2022-10-30T03:18:46;4.88;;;2.42;;
75772;SDS011;64381;0.000;0.000;2022-10-30T03:21:13;4.70;;;2.58;;
75772;SDS011;64381;0.000;0.000;2022-10-30T03:23:40;6.93;;;2.37;;
75772;SDS011;64381;0.000;0.000;2022-10-30T03:26:06;5.13;;;2.75;;
75772;SDS011;64381;0.000;0.000;2022-10-30T03:28:31;4.77;;;2.47;;
75772;SDS011;64381;0.000;0.000;2022-10-30T03:30:57;4.73;;;2.60;;
75772;SDS011;64381;0.000;0.000;2022-10-30T03:33:27;5.13;;;2.20;;
75772;SDS011;64381;0.000;0.000;2022-10-30T03:35:52;4.90;;;2.20;;
75772;SDS011;64381;0.000;0.000;2022-10-30T03:38:17;5.30;;;2.40;;
75772;SDS011;64381;0.000;0.000;2022-10-30T03:40:42;4.60;;;2.30;;
75772;SDS011;64381;0.000;0.000;2022-10-30T03:43:08;5.10;;;2.80;;
75772;SDS011;64381;0.000;0.000;2022-10-30T03:45:33;4.27;;;2.17;;
75772;SDS011;64381;0.000;0.000;2022-10-30T03:48:02;5.40;;;2.50;;
75772;SDS011;64381;0.000;0.000;2022-10-30T03:50:29;5.13;;;2.27;;
75772;SDS011;64381;0.000;0.000;2022-10-30T03:52:55;4.45;;;2.30;;
75772;SDS011;64381;0.000;0.000;2022-10-30T03:55:21;4.22;;;2.20;;
75772;SDS011;64381;0.000;0.000;2022-10-30T03:57:46;4.80;;;2.50;;
75772;SDS011;64381;0.000;0.000;2022-10-30T04:00:12;5.17;;;2.57;;
75772;SDS011;64381;0.000;0.000;2022-10-30T04:02:38;5.70;;;2.38;;
75772;SDS011;64381;0.000;0.000;2022-10-30T04:05:03;4.37;;;2.37;;
75772;SDS011;64381;0.000;0.000;2022-10-30T04:07:29;5.25;;;2.30;;
75772;SDS011;64381;0.000;0.000;2022-10-30T04:09:54;4.73;;;2.40;;
75772;SDS011;64381;0.000;0.000;2022-10-30T04:12:20;5.07;;;2.40;;
75772;SDS011;64381;0.000;0.000;2022-10-30T04:14:45;4.57;;;2.27;;
75772;SDS011;64381;0.000;0.000;2022-10-30T04:17:10;4.90;;;2.33;;
75772;SDS011;64381;0.000;0.000;2022-10-30T04:19:35;7.30;;;2.40;;
75772;SDS011;64381;0.000;0.000;2022-10-30T04:22:01;4.57;;;2.33;;
75772;SDS011;64381;0.000;0.000;2022-10-30T04:24:26;4.23;;;2.23;;
75772;SDS011;64381;0.000;0.000;2022-10-30T04:26:51;4.87;;;2.30;;
75772;SDS011;64381;0.000;0.000;2022-10-30T04:29:16;3.80;;;2.07;;
75772;SDS011;64381;0.000;0.000;2022-10-30T04:31:42;4.53;;;2.00;;
75772;SDS011;64381;0.000;0.000;2022-10-30T04:34:07;4.03;;;2.33;;
75772;SDS011;64381;0.000;0.000;2022-10-30T04:36:32;5.00;;;2.23;;
75772;SDS011;64381;0.000;0.000;2022-10-30T04:38:57;5.90;;;2.47;;
75772;SDS011;64381;0.000;0.000;2022-10-30T04:41:22;5.13;;;2.40;;
75772;SDS011;64381;0.000;0.000;2022-10-30T04:43:48;4.63;;;2.60;;
75772;SDS011;64381;0.000;0.000;2022-10-30T04:46:13;3.97;;;2.08;;
75772;SDS011;64381;0.000;0.000;2022-10-30T04:48:39;4.67;;;2.70;;
75772;SDS011;64381;0.000;0.000;2022-10-30T04:51:04;3.90;;;2.30;;
75772;SDS011;64381;0.000;0.000;2022-10-30T04:53:29;4.50;;;2.20;;
75772;SDS011;64381;0.000;0.000;2022-10-30T04:55:54;6.27;;;2.27;;
75772;SDS011;64381;0.000;0.000;2022-10-30T04:58:20;5.30;;;2.37;;
75772;SDS011;64381;0.000;0.000;2022-10-30T05:00:45;4.77;;;2.37;;
75772;SDS011;64381;0.000;0.000;2022-10-30T05:03:17;4.07;;;2.10;;
75772;SDS011;64381;0.000;0.000;2022-10-30T05:05:44;4.63;;;2.20;;
75772;SDS011;64381;0.000;0.000;2022-10-30T05:08:10;3.83;;;2.10;;
75772;SDS011;64381;0.000;0.000;2022-10-30T05:10:37;4.50;;;2.10;;
75772;SDS011;64381;0.000;0.000;2022-10-30T05:13:03;5.20;;;2.40;;
75772;SDS011;64381;0.000;0.000;2022-10-30T05:15:29;4.27;;;2.20;;
75772;SDS011;64381;0.000;0.000;2022-10-30T05:17:54;5.37;;;2.20;;
75772;SDS011;64381;0.000;0.000;2022-10-30T05:20:19;5.20;;;2.30;;
75772;SDS011;64381;0.000;0.000;2022-10-30T05:22:45;5.25;;;2.15;;
75772;SDS011;64381;0.000;0.000;2022-10-30T05:25:10;4.23;;;2.00;;
75772;SDS011;64381;0.000;0.000;2022-10-30T05:27:36;4.43;;;2.23;;
75772;SDS011;64381;0.000;0.000;2022-10-30T05:30:01;4.87;;;2.20;;
75772;SDS011;64381;0.000;0.000;2022-10-30T05:32:26;4.27;;;2.20;;
75772;SDS011;64381;0.000;0.000;2022-10-30T05:34:51;5.70;;;2.13;;
75772;SDS011;64381;0.000;0.000;2022-10-30T05:37:17;5.60;;;2.20;;
75772;SDS011;64381;0.000;0.000;2022-10-30T05:39:42;5.38;;;2.30;;
75772;SDS011;64381;0.000;0.000;2022-10-30T05:42:07;4.00;;;2.30;;
75772;SDS011;64381;0.000;0.000;2022-10-30T05:44:32;5.07;;;2.30;;
75772;SDS011;64381;0.000;0.000;2022-10-30T05:46:58;6.57;;;2.53;;
75772;SDS011;64381;0.000;0.000;2022-10-30T05:49:23;4.30;;;2.17;;
75772;SDS011;64381;0.000;0.000;2022-10-30T05:51:48;5.70;;;2.10;;
75772;SDS011;64381;0.000;0.000;2022-10-30T05:54:13;5.07;;;2.20;;
75772;SDS011;64381;0.000;0.000;2022-10-30T05:56:39;6.20;;;2.30;;
75772;SDS011;64381;0.000;0.000;2022-10-30T05:59:04;4.63;;;2.10;;
75772;SDS011;64381;0.000;0.000;2022-10-30T06:01:29;4.10;;;2.00;;
75772;SDS011;64381;0.000;0.000;2022-10-30T06:03:54;4.00;;;2.10;;
75772;SDS011;64381;0.000;0.000;2022-10-30T06:06:19;5.53;;;2.13;;
75772;SDS011;64381;0.000;0.000;2022-10-30T06:08:45;5.00;;;2.30;;
75772;SDS011;64381;0.000;0.000;2022-10-30T06:11:10;4.73;;;2.20;;
75772;SDS011;64381;0.000;0.000;2022-10-30T06:13:35;4.23;;;2.00;;
75772;SDS011;64381;0.000;0.000;2022-10-30T06:16:00;3.97;;;2.00;;
75772;SDS011;64381;0.000;0.000;2022-10-30T06:18:26;5.37;;;2.40;;
75772;SDS011;64381;0.000;0.000;2022-10-30T06:20:53;4.90;;;2.20;;
75772;SDS011;64381;0.000;0.000;2022-10-30T06:23:19;5.75;;;2.38;;
75772;SDS011;64381;0.000;0.000;2022-10-30T06:25:44;5.80;;;2.00;;
75772;SDS011;64381;0.000;0.000;2022-10-30T06:28:10;5.57;;;2.10;;
75772;SDS011;64381;0.000;0.000;2022-10-30T06:30:35;5.23;;;2.20;;
75772;SDS011;64381;0.000;0.000;2022-10-30T06:33:02;4.32;;;1.83;;
75772;SDS011;64381;0.000;0.000;2022-10-30T06:35:28;5.78;;;2.17;;
75772;SDS011;64381;0.000;0.000;2022-10-30T06:37:54;4.33;;;2.20;;
75772;SDS011;64381;0.000;0.000;2022-10-30T06:40:23;4.50;;;2.13;;
75772;SDS011;64381;0.000;0.000;2022-10-30T06:42:49;5.40;;;2.10;;
75772;SDS011;64381;0.000;0.000;2022-10-30T06:45:15;4.10;;;2.00;;
75772;SDS011;64381;0.000;0.000;2022-10-30T06:47:42;4.32;;;2.20;;
75772;SDS011;64381;0.000;0.000;2022-10-30T06:50:09;5.03;;;2.00;;
75772;SDS011;64381;0.000;0.000;2022-10-30T06:52:36;4.17;;;1.90;;
75772;SDS011;64381;0.000;0.000;2022-10-30T06:55:01;4.25;;;2.20;;
75772;SDS011;64381;0.000;0.000;2022-10-30T06:57:27;3.53;;;1.87;;
75772;SDS011;64381;0.000;0.000;2022-10-30T06:59:52;4.03;;;2.20;;
75772;SDS011;64381;0.000;0.000;2022-10-30T07:02:17;4.50;;;2.07;;
75772;SDS011;64381;0.000;0.000;2022-10-30T07:04:43;7.37;;;2.57;;
75772;SDS011;64381;0.000;0.000;2022-10-30T07:07:08;4.10;;;2.03;;
75772;SDS011;64381;0.000;0.000;2022-10-30T07:09:33;3.90;;;1.97;;
75772;SDS011;64381;0.000;0.000;2022-10-30T07:11:58;4.70;;;2.20;;
75772;SDS011;64381;0.000;0.000;2022-10-30T07:14:24;4.23;;;2.13;;
75772;SDS011;64381;0.000;0.000;2022-10-30T07:16:49;4.13;;;2.10;;
75772;SDS011;64381;0.000;0.000;2022-10-30T07:19:14;3.93;;;2.10;;
75772;SDS011;64381;0.000;0.000;2022-10-30T07:21:39;4.40;;;2.20;;
75772;SDS011;64381;0.000;0.000;2022-10-30T07:24:05;4.20;;;2.10;;
75772;SDS011;64381;0.000;0.000;2022-10-30T07:26:30;4.47;;;2.10;;
75772;SDS011;64381;0.000;0.000;2022-10-30T07:28:55;4.27;;;2.10;;
75772;SDS011;64381;0.000;0.000;2022-10-30T07:31:21;5.13;;;2.10;;
75772;SDS011;64381;0.000;0.000;2022-10-30T07:33:46;3.90;;;2.10;;
75772;SDS011;64381;0.000;0.000;2022-10-30T07:36:11;4.63;;;1.90;;
75772;SDS011;64381;0.000;0.000;2022-10-30T07:38:36;4.23;;;2.13;;
75772;SDS011;64381;0.000;0.000;2022-10-30T07:41:02;4.03;;;1.90;;
75772;SDS011;64381;0.000;0.000;2022-10-30T07:43:27;4.13;;;1.93;;
75772;SDS011;64381;0.000;0.000;2022-10-30T07:45:52;5.60;;;2.20;;
75772;SDS011;64381;0.000;0.000;2022-10-30T07:48:18;4.50;;;2.00;;
75772;SDS011;64381;0.000;0.000;2022-10-30T07:50:43;4.93;;;2.30;;
75772;SDS011;64381;0.000;0.000;2022-10-30T07:53:08;5.00;;;2.00;;
75772;SDS011;64381;0.000;0.000;2022-10-30T07:55:33;4.10;;;2.10;;
75772;SDS011;64381;0.000;0.000;2022-10-30T07:57:58;4.27;;;2.07;;
75772;SDS011;64381;0.000;0.000;2022-10-30T08:00:24;3.80;;;2.00;;
75772;SDS011;64381;0.000;0.000;2022-10-30T08:02:49;4.83;;;2.20;;
75772;SDS011;64381;0.000;0.000;2022-10-30T08:05:16;5.03;;;2.17;;
75772;SDS011;64381;0.000;0.000;2022-10-30T08:07:41;3.67;;;2.40;;
75772;SDS011;64381;0.000;0.000;2022-10-30T08:10:10;3.77;;;2.10;;
75772;SDS011;64381;0.000;0.000;2022-10-30T08:12:35;3.63;;;2.00;;
75772;SDS011;64381;0.000;0.000;2022-10-30T08:15:00;4.50;;;2.10;;
75772;SDS011;64381;0.000;0.000;2022-10-30T08:17:26;4.17;;;1.90;;
75772;SDS011;64381;0.000;0.000;2022-10-30T08:19:51;3.75;;;2.05;;
75772;SDS011;64381;0.000;0.000;2022-10-30T08:22:16;4.70;;;2.33;;
75772;SDS011;64381;0.000;0.000;2022-10-30T08:24:42;3.80;;;2.20;;
75772;SDS011;64381;0.000;0.000;2022-10-30T08:27:07;4.00;;;2.20;;
75772;SDS011;64381;0.000;0.000;2022-10-30T08:29:33;3.97;;;2.10;;
75772;SDS011;64381;0.000;0.000;2022-10-30T08:31:58;3.80;;;1.90;;
75772;SDS011;64381;0.000;0.000;2022-10-30T08:34:23;4.13;;;1.80;;
75772;SDS011;64381;0.000;0.000;2022-10-30T08:36:49;5.60;;;2.07;;
75772;SDS011;64381;0.000;0.000;2022-10-30T08:39:18;3.45;;;1.70;;
75772;SDS011;64381;0.000;0.000;2022-10-30T08:41:44;5.40;;;2.47;;
75772;SDS011;64381;0.000;0.000;2022-10-30T08:44:09;4.22;;;1.88;;
75772;SDS011;64381;0.000;0.000;2022-10-30T08:46:35;3.90;;;2.00;;
75772;SDS011;64381;0.000;0.000;2022-10-30T08:49:00;4.47;;;2.20;;
75772;SDS011;64381;0.000;0.000;2022-10-30T08:51:25;4.10;;;2.00;;
75772;SDS011;64381;0.000;0.000;2022-10-30T08:53:51;4.30;;;2.20;;
75772;SDS011;64381;0.000;0.000;2022-10-30T08:56:16;4.67;;;2.20;;
75772;SDS011;64381;0.000;0.000;2022-10-30T08:58:42;4.73;;;2.00;;
75772;SDS011;64381;0.000;0.000;2022-10-30T09:01:07;4.27;;;2.10;;
75772;SDS011;64381;0.000;0.000;2022-10-30T09:03:32;3.80;;;2.00;;
75772;SDS011;64381;0.000;0.000;2022-10-30T09:05:58;3.97;;;1.97;;
75772;SDS011;64381;0.000;0.000;2022-10-30T09:08:24;4.20;;;2.10;;
75772;SDS011;64381;0.000;0.000;2022-10-30T09:10:55;4.30;;;1.90;;
75772;SDS011;64381;0.000;0.000;2022-10-30T09:13:22;3.72;;;1.88;;
75772;SDS011;64381;0.000;0.000;2022-10-30T09:15:47;3.67;;;1.80;;
75772;SDS011;64381;0.000;0.000;2022-10-30T09:18:13;3.73;;;1.90;;
75772;SDS011;64381;0.000;0.000;2022-10-30T09:20:38;4.60;;;2.37;;
75772;SDS011;64381;0.000;0.000;2022-10-30T09:23:03;3.80;;;2.03;;
75772;SDS011;64381;0.000;0.000;2022-10-30T09:25:28;3.93;;;1.83;;
75772;SDS011;64381;0.000;0.000;2022-10-30T09:27:54;4.00;;;2.13;;
75772;SDS011;64381;0.000;0.000;2022-10-30T09:30:19;4.07;;;1.90;;
75772;SDS011;64381;0.000;0.000;2022-10-30T09:32:45;4.50;;;1.80;;
75772;SDS011;64381;0.000;0.000;2022-10-30T09:35:10;4.20;;;2.10;;
75772;SDS011;64381;0.000;0.000;2022-10-30T09:37:36;3.80;;;2.03;;
75772;SDS011;64381;0.000;0.000;2022-10-30T09:40:02;3.72;;;1.80;;
75772;SDS011;64381;0.000;0.000;2022-10-30T09:42:36;4.20;;;2.20;;
75772;SDS011;64381;0.000;0.000;2022-10-30T09:47:58;4.13;;;2.00;;
75772;SDS011;64381;0.000;0.000;2022-10-30T09:50:48;3.80;;;1.80;;
75772;SDS011;64381;0.000;0.000;2022-10-30T09:53:28;3.83;;;2.00;;
75772;SDS011;64381;0.000;0.000;2022-10-30T09:56:14;3.50;;;1.73;;
75772;SDS011;64381;0.000;0.000;2022-10-30T09:59:04;3.55;;;1.98;;
75772;SDS011;64381;0.000;0.000;2022-10-30T10:04:22;3.58;;;1.90;;
75772;SDS011;64381;0.000;0.000;2022-10-30T10:06:59;4.13;;;1.92;;
75772;SDS011;64381;0.000;0.000;2022-10-30T10:09:32;4.20;;;2.00;;
75772;SDS011;64381;0.000;0.000;2022-10-30T10:12:01;3.47;;;1.90;;
75772;SDS011;64381;0.000;0.000;2022-10-30T10:14:33;3.53;;;1.60;;
75772;SDS011;64381;0.000;0.000;2022-10-30T10:17:02;3.92;;;2.10;;
75772;SDS011;64381;0.000;0.000;2022-10-30T10:22:21;3.58;;;2.10;;
75772;SDS011;64381;0.000;0.000;2022-10-30T10:24:51;4.10;;;1.80;;
75772;SDS011;64381;0.000;0.000;2022-10-30T10:30:00;3.67;;;1.90;;
75772;SDS011;64381;0.000;0.000;2022-10-30T10:49:02;3.88;;;1.70;;
75772;SDS011;64381;0.000;0.000;2022-10-30T10:51:35;3.75;;;1.95;;
75772;SDS011;64381;0.000;0.000;2022-10-30T10:54:20;3.80;;;2.00;;
75772;SDS011;64381;0.000;0.000;2022-10-30T10:56:49;4.03;;;2.10;;
75772;SDS011;64381;0.000;0.000;2022-10-30T10:59:17;3.88;;;1.85;;
75772;SDS011;64381;0.000;0.000;2022-10-30T11:04:38;3.30;;;1.70;;
75772;SDS011;64381;0.000;0.000;2022-10-30T11:07:17;3.57;;;2.03;;
75772;SDS011;64381;0.000;0.000;2022-10-30T11:09:46;3.67;;;2.00;;
75772;SDS011;64381;0.000;0.000;2022-10-30T11:12:15;4.30;;;1.85;;
75772;SDS011;64381;0.000;0.000;2022-10-30T11:14:41;4.03;;;1.90;;
75772;SDS011;64381;0.000;0.000;2022-10-30T11:17:12;3.60;;;1.90;;
75772;SDS011;64381;0.000;0.000;2022-10-30T11:19:44;3.97;;;2.08;;
75772;SDS011;64381;0.000;0.000;2022-10-30T11:22:19;4.55;;;1.90;;
75772;SDS011;64381;0.000;0.000;2022-10-30T11:24:49;3.20;;;1.70;;
75772;SDS011;64381;0.000;0.000;2022-10-30T11:27:16;3.53;;;1.83;;
75772;SDS011;64381;0.000;0.000;2022-10-30T11:29:46;4.50;;;2.08;;
75772;SDS011;64381;0.000;0.000;2022-10-30T11:32:17;4.45;;;1.80;;
75772;SDS011;64381;0.000;0.000;2022-10-30T11:34:43;3.30;;;1.70;;
75772;SDS011;64381;0.000;0.000;2022-10-30T11:37:27;3.88;;;1.80;;
75772;SDS011;64381;0.000;0.000;2022-10-30T11:40:02;3.53;;;1.90;;
75772;SDS011;64381;0.000;0.000;2022-10-30T11:42:30;3.75;;;1.90;;
75772;SDS011;64381;0.000;0.000;2022-10-30T11:44:56;4.53;;;1.80;;
75772;SDS011;64381;0.000;0.000;2022-10-30T11:47:25;3.53;;;1.73;;
75772;SDS011;64381;0.000;0.000;2022-10-30T11:49:57;4.00;;;1.70;;
75772;SDS011;64381;0.000;0.000;2022-10-30T11:52:24;3.30;;;1.50;;
75772;SDS011;64381;0.000;0.000;2022-10-30T11:55:12;3.50;;;1.70;;
75772;SDS011;64381;0.000;0.000;2022-10-30T11:57:59;3.90;;;1.90;;
75772;SDS011;64381;0.000;0.000;2022-10-30T12:00:25;4.78;;;1.80;;
75772;SDS011;64381;0.000;0.000;2022-10-30T12:02:55;3.83;;;1.88;;
75772;SDS011;64381;0.000;0.000;2022-10-30T12:07:53;4.32;;;1.95;;
75772;SDS011;64381;0.000;0.000;2022-10-30T12:13:11;3.50;;;1.83;;
75772;SDS011;64381;0.000;0.000;2022-10-30T12:15:38;3.25;;;1.60;;
75772;SDS011;64381;0.000;0.000;2022-10-30T12:18:05;3.23;;;1.60;;
75772;SDS011;64381;0.000;0.000;2022-10-30T12:20:32;4.00;;;1.80;;
75772;SDS011;64381;0.000;0.000;2022-10-30T12:23:09;3.33;;;1.52;;
75772;SDS011;64381;0.000;0.000;2022-10-30T12:25:40;3.78;;;1.70;;
75772;SDS011;64381;0.000;0.000;2022-10-30T12:28:12;3.20;;;1.50;;
75772;SDS011;64381;0.000;0.000;2022-10-30T12:30:43;3.20;;;1.73;;
75772;SDS011;64381;0.000;0.000;2022-10-30T12:33:18;4.22;;;1.80;;
75772;SDS011;64381;0.000;0.000;2022-10-30T12:35:53;4.32;;;1.70;;
75772;SDS011;64381;0.000;0.000;2022-10-30T12:38:24;3.22;;;1.70;;
75772;SDS011;64381;0.000;0.000;2022-10-30T12:40:57;3.30;;;1.70;;
75772;SDS011;64381;0.000;0.000;2022-10-30T12:43:27;3.85;;;1.70;;
75772;SDS011;64381;0.000;0.000;2022-10-30T12:46:05;3.38;;;1.67;;
75772;SDS011;64381;0.000;0.000;2022-10-30T12:49:02;4.03;;;1.70;;
75772;SDS011;64381;0.000;0.000;2022-10-30T12:54:42;3.87;;;1.90;;
75772;SDS011;64381;0.000;0.000;2022-10-30T12:57:25;3.33;;;1.77;;
75772;SDS011;64381;0.000;0.000;2022-10-30T13:00:20;3.47;;;1.77;;
75772;SDS011;64381;0.000;0.000;2022-10-30T13:02:58;3.40;;;1.70;;
75772;SDS011;64381;0.000;0.000;2022-10-30T13:05:31;3.40;;;1.80;;
75772;SDS011;64381;0.000;0.000;2022-10-30T13:10:26;4.25;;;1.80;;
75772;SDS011;64381;0.000;0.000;2022-10-30T13:12:56;3.70;;;1.70;;
75772;SDS011;64381;0.000;0.000;2022-10-30T13:15:34;3.92;;;1.67;;
75772;SDS011;64381;0.000;0.000;2022-10-30T13:18:19;3.67;;;1.80;;
75772;SDS011;64381;0.000;0.000;2022-10-30T13:28:56;3.90;;;1.67;;
75772;SDS011;64381;0.000;0.000;2022-10-30T13:31:31;3.40;;;1.70;;
75772;SDS011;64381;0.000;0.000;2022-10-30T13:34:05;3.50;;;1.80;;
75772;SDS011;64381;0.000;0.000;2022-10-30T13:37:01;3.30;;;1.60;;
75772;SDS011;64381;0.000;0.000;2022-10-30T13:42:37;3.10;;;1.52;;
75772;SDS011;64381;0.000;0.000;2022-10-30T13:53:26;3.03;;;1.40;;
75772;SDS011;64381;0.000;0.000;2022-10-30T13:55:55;3.78;;;1.80;;
75772;SDS011;64381;0.000;0.000;2022-10-30T14:01:06;3.47;;;1.90;;
75772;SDS011;64381;0.000;0.000;2022-10-30T14:03:44;3.17;;;1.60;;
75772;SDS011;64381;0.000;0.000;2022-10-30T14:15:04;3.33;;;1.85;;
75772;SDS011;64381;0.000;0.000;2022-10-30T14:17:30;3.97;;;1.93;;
75772;SDS011;64381;0.000;0.000;2022-10-30T14:22:30;2.90;;;1.55;;
75772;SDS011;64381;0.000;0.000;2022-10-30T14:24:56;3.40;;;1.50;;
75772;SDS011;64381;0.000;0.000;2022-10-30T14:27:26;3.20;;;1.50;;
75772;SDS011;64381;0.000;0.000;2022-10-30T14:29:54;3.83;;;1.60;;
75772;SDS011;64381;0.000;0.000;2022-10-30T14:40:29;3.20;;;1.60;;
75772;SDS011;64381;0.000;0.000;2022-10-30T14:43:11;4.35;;;1.83;;
75772;SDS011;64381;0.000;0.000;2022-10-30T14:45:49;3.40;;;1.60;;
75772;SDS011;64381;0.000;0.000;2022-10-30T14:51:18;3.47;;;1.60;;
75772;SDS011;64381;0.000;0.000;2022-10-30T14:59:16;3.38;;;1.70;;
75772;SDS011;64381;0.000;0.000;2022-10-30T15:04:58;3.47;;;1.70;;
75772;SDS011;64381;0.000;0.000;2022-10-30T15:07:37;3.40;;;1.70;;
75772;SDS011;64381;0.000;0.000;2022-10-30T15:13:21;3.97;;;1.77;;
75772;SDS011;64381;0.000;0.000;2022-10-30T15:16:00;3.93;;;1.80;;
75772;SDS011;64381;0.000;0.000;2022-10-30T15:18:28;3.40;;;1.77;;
75772;SDS011;64381;0.000;0.000;2022-10-30T15:20:54;3.37;;;1.67;;
75772;SDS011;64381;0.000;0.000;2022-10-30T15:23:24;3.27;;;1.50;;
75772;SDS011;64381;0.000;0.000;2022-10-30T15:25:54;5.53;;;1.80;;
75772;SDS011;64381;0.000;0.000;2022-10-30T15:28:23;3.90;;;1.60;;
75772;SDS011;64381;0.000;0.000;2022-10-30T15:33:30;3.50;;;1.70;;
75772;SDS011;64381;0.000;0.000;2022-10-30T15:35:56;4.47;;;1.67;;
75772;SDS011;64381;0.000;0.000;2022-10-30T15:38:21;3.80;;;1.60;;
75772;SDS011;64381;0.000;0.000;2022-10-30T15:40:46;4.10;;;1.80;;
75772;SDS011;64381;0.000;0.000;2022-10-30T15:43:12;3.80;;;1.70;;
75772;SDS011;64381;0.000;0.000;2022-10-30T15:45:44;3.72;;;1.77;;
75772;SDS011;64381;0.000;0.000;2022-10-30T15:56:32;4.13;;;1.73;;
75772;SDS011;64381;0.000;0.000;2022-10-30T15:59:02;4.90;;;1.90;;
75772;SDS011;64381;0.000;0.000;2022-10-30T16:01:30;3.85;;;1.65;;
75772;SDS011;64381;0.000;0.000;2022-10-30T16:03:58;3.75;;;1.90;;
75772;SDS011;64381;0.000;0.000;2022-10-30T16:06:25;4.47;;;1.63;;
75772;SDS011;64381;0.000;0.000;2022-10-30T16:08:51;3.78;;;1.75;;
75772;SDS011;64381;0.000;0.000;2022-10-30T16:11:16;4.53;;;2.00;;
75772;SDS011;64381;0.000;0.000;2022-10-30T16:13:42;3.67;;;1.77;;
75772;SDS011;64381;0.000;0.000;2022-10-30T16:16:12;3.50;;;1.70;;
75772;SDS011;64381;0.000;0.000;2022-10-30T16:18:41;4.00;;;1.75;;
75772;SDS011;64381;0.000;0.000;2022-10-30T16:21:08;3.70;;;1.80;;
75772;SDS011;64381;0.000;0.000;2022-10-30T16:23:39;4.63;;;2.03;;
75772;SDS011;64381;0.000;0.000;2022-10-30T16:26:06;6.43;;;2.10;;
75772;SDS011;64381;0.000;0.000;2022-10-30T16:28:45;4.00;;;1.70;;
75772;SDS011;64381;0.000;0.000;2022-10-30T16:31:11;4.22;;;1.75;;
75772;SDS011;64381;0.000;0.000;2022-10-30T16:33:37;4.30;;;1.67;;
75772;SDS011;64381;0.000;0.000;2022-10-30T16:36:02;4.05;;;1.60;;
75772;SDS011;64381;0.000;0.000;2022-10-30T16:38:30;4.82;;;1.90;;
75772;SDS011;64381;0.000;0.000;2022-10-30T16:40:58;5.47;;;2.00;;
75772;SDS011;64381;0.000;0.000;2022-10-30T16:43:29;3.53;;;1.80;;
75772;SDS011;64381;0.000;0.000;2022-10-30T16:48:38;5.10;;;1.80;;
75772;SDS011;64381;0.000;0.000;2022-10-30T16:51:13;3.93;;;2.00;;
75772;SDS011;64381;0.000;0.000;2022-10-30T16:53:44;4.93;;;2.30;;
75772;SDS011;64381;0.000;0.000;2022-10-30T16:56:17;4.22;;;1.90;;
75772;SDS011;64381;0.000;0.000;2022-10-30T16:58:46;3.67;;;1.70;;
75772;SDS011;64381;0.000;0.000;2022-10-30T17:01:11;4.57;;;1.90;;
75772;SDS011;64381;0.000;0.000;2022-10-30T17:03:37;4.27;;;1.80;;
75772;SDS011;64381;0.000;0.000;2022-10-30T17:06:06;4.30;;;1.55;;
75772;SDS011;64381;0.000;0.000;2022-10-30T17:08:48;3.97;;;1.75;;
75772;SDS011;64381;0.000;0.000;2022-10-30T17:11:17;4.57;;;1.90;;
75772;SDS011;64381;0.000;0.000;2022-10-30T17:16:36;4.07;;;1.77;;
75772;SDS011;64381;0.000;0.000;2022-10-30T17:21:53;3.58;;;1.70;;
75772;SDS011;64381;0.000;0.000;2022-10-30T17:24:40;3.30;;;1.70;;